sensor_id;sensor_type;location;lat;lon;timestamp;temperature;humidity
12833;DHT22;6483;51.310;4.462;2023-10-08T00:02:10;16.00;99.90
12833;DHT22;6483;51.310;4.462;2023-10-08T00:04:38;15.80;99.90
12833;DHT22;6483;51.310;4.462;2023-10-08T00:07:07;15.70;99.90
12833;DHT22;6483;51.310;4.462;2023-10-08T00:09:34;15.60;99.90
12833;DHT22;6483;51.310;4.462;2023-10-08T00:12:04;15.60;99.90
12833;DHT22;6483;51.310;4.462;2023-10-08T00:14:30;15.50;99.90
12833;DHT22;6483;51.310;4.462;2023-10-08T00:17:11;15.50;99.90
12833;DHT22;6483;51.310;4.462;2023-10-08T00:19:40;15.50;99.90
12833;DHT22;6483;51.310;4.462;2023-10-08T00:22:09;15.50;99.90
12833;DHT22;6483;51.310;4.462;2023-10-08T00:24:36;15.40;99.90
12833;DHT22;6483;51.310;4.462;2023-10-08T00:27:03;15.40;99.90
12833;DHT22;6483;51.310;4.462;2023-10-08T00:29:32;15.30;99.90
12833;DHT22;6483;51.310;4.462;2023-10-08T00:32:01;15.20;99.90
12833;DHT22;6483;51.310;4.462;2023-10-08T00:34:37;15.20;99.90
12833;DHT22;6483;51.310;4.462;2023-10-08T00:37:10;15.10;99.90
12833;DHT22;6483;51.310;4.462;2023-10-08T00:39:42;15.00;99.90
12833;DHT22;6483;51.310;4.462;2023-10-08T00:42:11;15.00;99.90
12833;DHT22;6483;51.310;4.462;2023-10-08T00:44:41;15.10;99.90
12833;DHT22;6483;51.310;4.462;2023-10-08T00:47:14;15.00;99.90
12833;DHT22;6483;51.310;4.462;2023-10-08T00:49:45;15.00;99.90
12833;DHT22;6483;51.310;4.462;2023-10-08T00:52:12;15.10;99.90
12833;DHT22;6483;51.310;4.462;2023-10-08T00:54:39;15.10;99.90
12833;DHT22;6483;51.310;4.462;2023-10-08T00:57:29;15.20;99.90
12833;DHT22;6483;51.310;4.462;2023-10-08T00:59:56;15.20;99.90
12833;DHT22;6483;51.310;4.462;2023-10-08T01:02:29;15.10;99.90
12833;DHT22;6483;51.310;4.462;2023-10-08T01:05:15;15.00;99.90
12833;DHT22;6483;51.310;4.462;2023-10-08T01:07:49;15.10;99.90
12833;DHT22;6483;51.310;4.462;2023-10-08T01:10:17;15.10;99.90
12833;DHT22;6483;51.310;4.462;2023-10-08T01:12:49;14.90;99.90
12833;DHT22;6483;51.310;4.462;2023-10-08T01:15:28;14.80;99.90
12833;DHT22;6483;51.310;4.462;2023-10-08T01:17:56;14.70;99.90
12833;DHT22;6483;51.310;4.462;2023-10-08T01:20:45;14.70;99.90
12833;DHT22;6483;51.310;4.462;2023-10-08T01:23:18;14.60;99.90
12833;DHT22;6483;51.310;4.462;2023-10-08T01:25:49;14.60;99.90
12833;DHT22;6483;51.310;4.462;2023-10-08T01:28:23;14.50;99.90
12833;DHT22;6483;51.310;4.462;2023-10-08T01:30:53;14.40;99.90
12833;DHT22;6483;51.310;4.462;2023-10-08T01:33:20;14.20;99.90
12833;DHT22;6483;51.310;4.462;2023-10-08T01:35:54;14.00;99.90
12833;DHT22;6483;51.310;4.462;2023-10-08T01:38:20;13.90;99.90
12833;DHT22;6483;51.310;4.462;2023-10-08T01:40:55;13.90;99.90
12833;DHT22;6483;51.310;4.462;2023-10-08T01:43:25;13.90;99.90
12833;DHT22;6483;51.310;4.462;2023-10-08T01:45:52;14.00;99.90
12833;DHT22;6483;51.310;4.462;2023-10-08T01:48:18;13.90;99.90
12833;DHT22;6483;51.310;4.462;2023-10-08T01:51:05;13.90;99.90
12833;DHT22;6483;51.310;4.462;2023-10-08T01:53:54;13.80;99.90
12833;DHT22;6483;51.310;4.462;2023-10-08T01:56:23;13.70;99.90
12833;DHT22;6483;51.310;4.462;2023-10-08T01:58:49;13.60;99.90
12833;DHT22;6483;51.310;4.462;2023-10-08T02:01:27;13.50;99.90
12833;DHT22;6483;51.310;4.462;2023-10-08T02:03:56;13.50;99.90
12833;DHT22;6483;51.310;4.462;2023-10-08T02:06:21;14.70;99.90
12833;DHT22;6483;51.310;4.462;2023-10-08T02:08:47;13.40;99.90
12833;DHT22;6483;51.310;4.462;2023-10-08T02:11:13;13.30;99.90
12833;DHT22;6483;51.310;4.462;2023-10-08T02:13:41;13.30;99.90
12833;DHT22;6483;51.310;4.462;2023-10-08T02:16:08;13.30;99.90
12833;DHT22;6483;51.310;4.462;2023-10-08T02:18:33;13.20;99.90
12833;DHT22;6483;51.310;4.462;2023-10-08T02:20:59;13.20;99.90
12833;DHT22;6483;51.310;4.462;2023-10-08T02:23:25;13.20;99.90
12833;DHT22;6483;51.310;4.462;2023-10-08T02:25:50;13.10;99.90
12833;DHT22;6483;51.310;4.462;2023-10-08T02:28:16;13.10;99.90
12833;DHT22;6483;51.310;4.462;2023-10-08T02:30:45;13.00;99.90
12833;DHT22;6483;51.310;4.462;2023-10-08T02:33:11;13.00;99.90
12833;DHT22;6483;51.310;4.462;2023-10-08T02:35:47;12.90;99.90
12833;DHT22;6483;51.310;4.462;2023-10-08T02:38:16;12.90;99.90
12833;DHT22;6483;51.310;4.462;2023-10-08T02:40:43;12.90;99.90
12833;DHT22;6483;51.310;4.462;2023-10-08T02:43:19;12.90;99.90
12833;DHT22;6483;51.310;4.462;2023-10-08T02:45:49;12.90;99.90
12833;DHT22;6483;51.310;4.462;2023-10-08T02:48:17;12.80;99.90
12833;DHT22;6483;51.310;4.462;2023-10-08T02:50:46;12.80;99.90
12833;DHT22;6483;51.310;4.462;2023-10-08T02:53:12;12.80;99.90
12833;DHT22;6483;51.310;4.462;2023-10-08T02:55:43;12.80;99.90
12833;DHT22;6483;51.310;4.462;2023-10-08T02:58:13;12.90;99.90
12833;DHT22;6483;51.310;4.462;2023-10-08T03:00:47;12.80;99.90
12833;DHT22;6483;51.310;4.462;2023-10-08T03:03:19;12.80;99.90
12833;DHT22;6483;51.310;4.462;2023-10-08T03:05:47;12.90;99.90
12833;DHT22;6483;51.310;4.462;2023-10-08T03:08:19;13.00;99.90
12833;DHT22;6483;51.310;4.462;2023-10-08T03:10:50;12.90;99.90
12833;DHT22;6483;51.310;4.462;2023-10-08T03:13:19;12.70;99.90
12833;DHT22;6483;51.310;4.462;2023-10-08T03:15:51;12.70;99.90
12833;DHT22;6483;51.310;4.462;2023-10-08T03:18:27;12.60;99.90
12833;DHT22;6483;51.310;4.462;2023-10-08T03:21:02;12.50;99.90
12833;DHT22;6483;51.310;4.462;2023-10-08T03:23:32;12.50;99.90
12833;DHT22;6483;51.310;4.462;2023-10-08T03:26:06;12.40;99.90
12833;DHT22;6483;51.310;4.462;2023-10-08T03:28:54;12.30;99.90
12833;DHT22;6483;51.310;4.462;2023-10-08T03:31:26;12.30;99.90
12833;DHT22;6483;51.310;4.462;2023-10-08T03:34:19;12.30;99.90
12833;DHT22;6483;51.310;4.462;2023-10-08T03:36:46;12.20;99.90
12833;DHT22;6483;51.310;4.462;2023-10-08T03:39:16;12.20;99.90
12833;DHT22;6483;51.310;4.462;2023-10-08T03:41:45;12.10;99.90
12833;DHT22;6483;51.310;4.462;2023-10-08T03:44:23;12.00;99.90
12833;DHT22;6483;51.310;4.462;2023-10-08T03:46:50;11.90;99.90
12833;DHT22;6483;51.310;4.462;2023-10-08T03:49:18;12.10;99.90
12833;DHT22;6483;51.310;4.462;2023-10-08T03:51:47;12.20;99.90
12833;DHT22;6483;51.310;4.462;2023-10-08T03:54:21;12.10;99.90
12833;DHT22;6483;51.310;4.462;2023-10-08T03:56:59;12.00;99.90
12833;DHT22;6483;51.310;4.462;2023-10-08T03:59:26;12.00;99.90
12833;DHT22;6483;51.310;4.462;2023-10-08T04:01:55;11.90;99.90
12833;DHT22;6483;51.310;4.462;2023-10-08T04:04:30;11.80;99.90
12833;DHT22;6483;51.310;4.462;2023-10-08T04:07:21;11.90;99.90
12833;DHT22;6483;51.310;4.462;2023-10-08T04:10:00;11.80;99.90
12833;DHT22;6483;51.310;4.462;2023-10-08T04:12:38;11.70;99.90
12833;DHT22;6483;51.310;4.462;2023-10-08T04:15:10;11.70;99.90
12833;DHT22;6483;51.310;4.462;2023-10-08T04:17:38;11.70;99.90
12833;DHT22;6483;51.310;4.462;2023-10-08T04:20:16;11.70;99.90
12833;DHT22;6483;51.310;4.462;2023-10-08T04:23:02;11.60;99.90
12833;DHT22;6483;51.310;4.462;2023-10-08T04:25:34;11.60;99.90
12833;DHT22;6483;51.310;4.462;2023-10-08T04:28:00;11.60;99.90
12833;DHT22;6483;51.310;4.462;2023-10-08T04:30:35;11.60;99.90
12833;DHT22;6483;51.310;4.462;2023-10-08T04:33:03;11.60;99.90
12833;DHT22;6483;51.310;4.462;2023-10-08T04:35:52;11.60;99.90
12833;DHT22;6483;51.310;4.462;2023-10-08T04:38:22;11.70;99.90
12833;DHT22;6483;51.310;4.462;2023-10-08T04:40:49;11.60;99.90
12833;DHT22;6483;51.310;4.462;2023-10-08T04:43:19;11.60;99.90
12833;DHT22;6483;51.310;4.462;2023-10-08T04:46:07;11.60;99.90
12833;DHT22;6483;51.310;4.462;2023-10-08T04:48:50;11.60;99.90
12833;DHT22;6483;51.310;4.462;2023-10-08T04:51:30;11.70;99.90
12833;DHT22;6483;51.310;4.462;2023-10-08T04:54:00;11.70;99.90
12833;DHT22;6483;51.310;4.462;2023-10-08T04:56:26;11.60;99.90
12833;DHT22;6483;51.310;4.462;2023-10-08T04:58:53;11.60;99.90
12833;DHT22;6483;51.310;4.462;2023-10-08T05:01:20;11.60;99.90
12833;DHT22;6483;51.310;4.462;2023-10-08T05:04:06;11.70;99.90
12833;DHT22;6483;51.310;4.462;2023-10-08T05:06:48;11.70;99.90
12833;DHT22;6483;51.310;4.462;2023-10-08T05:09:14;11.70;99.90
12833;DHT22;6483;51.310;4.462;2023-10-08T05:11:47;11.60;99.90
12833;DHT22;6483;51.310;4.462;2023-10-08T05:14:38;11.60;99.90
12833;DHT22;6483;51.310;4.462;2023-10-08T05:17:22;11.70;99.90
12833;DHT22;6483;51.310;4.462;2023-10-08T05:19:49;11.70;99.90
12833;DHT22;6483;51.310;4.462;2023-10-08T05:22:33;11.70;99.90
12833;DHT22;6483;51.310;4.462;2023-10-08T05:24:59;11.90;99.90
12833;DHT22;6483;51.310;4.462;2023-10-08T05:27:45;11.90;99.90
12833;DHT22;6483;51.310;4.462;2023-10-08T05:30:20;11.90;99.90
12833;DHT22;6483;51.310;4.462;2023-10-08T05:33:19;11.80;99.90
12833;DHT22;6483;51.310;4.462;2023-10-08T05:35:46;11.70;99.90
12833;DHT22;6483;51.310;4.462;2023-10-08T05:38:20;11.80;99.90
12833;DHT22;6483;51.310;4.462;2023-10-08T05:41:04;11.80;99.90
12833;DHT22;6483;51.310;4.462;2023-10-08T05:43:35;11.70;99.90
12833;DHT22;6483;51.310;4.462;2023-10-08T05:46:14;11.70;99.90
12833;DHT22;6483;51.310;4.462;2023-10-08T05:48:56;11.70;99.90
12833;DHT22;6483;51.310;4.462;2023-10-08T05:51:42;11.70;99.90
12833;DHT22;6483;51.310;4.462;2023-10-08T05:54:26;11.70;99.90
12833;DHT22;6483;51.310;4.462;2023-10-08T05:59:36;11.80;99.90
12833;DHT22;6483;51.310;4.462;2023-10-08T06:02:28;13.00;99.90
12833;DHT22;6483;51.310;4.462;2023-10-08T06:05:10;11.90;99.90
12833;DHT22;6483;51.310;4.462;2023-10-08T06:07:51;11.90;99.90
12833;DHT22;6483;51.310;4.462;2023-10-08T06:10:27;11.90;99.90
12833;DHT22;6483;51.310;4.462;2023-10-08T06:13:03;12.00;99.90
12833;DHT22;6483;51.310;4.462;2023-10-08T06:15:48;12.10;99.90
12833;DHT22;6483;51.310;4.462;2023-10-08T06:18:33;12.20;99.90
12833;DHT22;6483;51.310;4.462;2023-10-08T06:21:01;12.20;99.90
12833;DHT22;6483;51.310;4.462;2023-10-08T06:23:30;12.30;99.90
12833;DHT22;6483;51.310;4.462;2023-10-08T06:26:03;12.40;99.90
12833;DHT22;6483;51.310;4.462;2023-10-08T06:28:38;12.50;99.90
12833;DHT22;6483;51.310;4.462;2023-10-08T06:31:10;12.60;99.90
12833;DHT22;6483;51.310;4.462;2023-10-08T06:33:46;12.70;99.90
12833;DHT22;6483;51.310;4.462;2023-10-08T06:36:15;12.80;99.90
12833;DHT22;6483;51.310;4.462;2023-10-08T06:38:45;12.90;99.90
12833;DHT22;6483;51.310;4.462;2023-10-08T06:41:15;13.10;99.90
12833;DHT22;6483;51.310;4.462;2023-10-08T06:43:55;13.20;99.90
12833;DHT22;6483;51.310;4.462;2023-10-08T06:46:42;13.30;99.90
12833;DHT22;6483;51.310;4.462;2023-10-08T06:49:12;13.40;99.90
12833;DHT22;6483;51.310;4.462;2023-10-08T06:51:42;13.50;99.90
12833;DHT22;6483;51.310;4.462;2023-10-08T06:54:08;13.60;99.90
12833;DHT22;6483;51.310;4.462;2023-10-08T06:56:39;13.80;99.90
12833;DHT22;6483;51.310;4.462;2023-10-08T06:59:11;13.90;99.90
12833;DHT22;6483;51.310;4.462;2023-10-08T07:01:36;14.00;99.90
12833;DHT22;6483;51.310;4.462;2023-10-08T07:04:06;14.10;99.90
12833;DHT22;6483;51.310;4.462;2023-10-08T07:06:33;14.30;99.90
12833;DHT22;6483;51.310;4.462;2023-10-08T07:09:04;14.50;99.90
12833;DHT22;6483;51.310;4.462;2023-10-08T07:11:34;14.70;99.90
12833;DHT22;6483;51.310;4.462;2023-10-08T07:14:21;14.80;99.90
12833;DHT22;6483;51.310;4.462;2023-10-08T07:16:48;15.00;99.90
12833;DHT22;6483;51.310;4.462;2023-10-08T07:19:22;15.10;99.90
12833;DHT22;6483;51.310;4.462;2023-10-08T07:22:05;15.30;99.90
12833;DHT22;6483;51.310;4.462;2023-10-08T07:24:44;15.40;99.90
12833;DHT22;6483;51.310;4.462;2023-10-08T07:27:20;15.50;99.90
12833;DHT22;6483;51.310;4.462;2023-10-08T07:30:03;15.50;99.90
12833;DHT22;6483;51.310;4.462;2023-10-08T07:32:41;15.50;99.90
12833;DHT22;6483;51.310;4.462;2023-10-08T07:35:07;15.60;99.90
12833;DHT22;6483;51.310;4.462;2023-10-08T07:37:45;15.70;99.90
12833;DHT22;6483;51.310;4.462;2023-10-08T07:40:14;15.80;99.90
12833;DHT22;6483;51.310;4.462;2023-10-08T07:42:43;15.90;99.90
12833;DHT22;6483;51.310;4.462;2023-10-08T07:45:09;15.90;99.90
12833;DHT22;6483;51.310;4.462;2023-10-08T07:47:42;16.10;99.90
12833;DHT22;6483;51.310;4.462;2023-10-08T07:50:10;16.10;99.90
12833;DHT22;6483;51.310;4.462;2023-10-08T07:52:38;16.20;99.90
12833;DHT22;6483;51.310;4.462;2023-10-08T07:55:07;16.20;99.90
12833;DHT22;6483;51.310;4.462;2023-10-08T07:57:33;16.30;99.90
12833;DHT22;6483;51.310;4.462;2023-10-08T07:59:59;16.50;99.90
12833;DHT22;6483;51.310;4.462;2023-10-08T08:02:48;16.70;99.90
12833;DHT22;6483;51.310;4.462;2023-10-08T08:05:16;16.80;99.90
12833;DHT22;6483;51.310;4.462;2023-10-08T08:07:45;16.80;99.90
12833;DHT22;6483;51.310;4.462;2023-10-08T08:10:20;17.10;99.90
12833;DHT22;6483;51.310;4.462;2023-10-08T08:12:51;17.20;99.90
12833;DHT22;6483;51.310;4.462;2023-10-08T08:15:22;17.50;99.90
12833;DHT22;6483;51.310;4.462;2023-10-08T08:17:49;17.70;99.90
12833;DHT22;6483;51.310;4.462;2023-10-08T08:20:16;17.80;99.90
12833;DHT22;6483;51.310;4.462;2023-10-08T08:22:48;17.90;99.90
12833;DHT22;6483;51.310;4.462;2023-10-08T08:25:19;18.00;99.90
12833;DHT22;6483;51.310;4.462;2023-10-08T08:28:05;18.10;99.90
12833;DHT22;6483;51.310;4.462;2023-10-08T08:30:32;18.20;99.90
12833;DHT22;6483;51.310;4.462;2023-10-08T08:33:01;18.40;99.90
12833;DHT22;6483;51.310;4.462;2023-10-08T08:35:35;18.60;99.90
12833;DHT22;6483;51.310;4.462;2023-10-08T08:38:04;18.80;99.90
12833;DHT22;6483;51.310;4.462;2023-10-08T08:40:31;19.20;99.90
12833;DHT22;6483;51.310;4.462;2023-10-08T08:42:58;20.10;99.90
12833;DHT22;6483;51.310;4.462;2023-10-08T08:45:28;20.80;99.90
12833;DHT22;6483;51.310;4.462;2023-10-08T08:47:58;21.50;99.90
12833;DHT22;6483;51.310;4.462;2023-10-08T08:50:25;22.30;99.90
12833;DHT22;6483;51.310;4.462;2023-10-08T08:52:52;22.60;99.90
12833;DHT22;6483;51.310;4.462;2023-10-08T08:55:18;23.70;99.90
12833;DHT22;6483;51.310;4.462;2023-10-08T08:57:50;24.30;99.90
12833;DHT22;6483;51.310;4.462;2023-10-08T09:00:21;25.20;81.40
12833;DHT22;6483;51.310;4.462;2023-10-08T09:02:52;26.30;69.00
12833;DHT22;6483;51.310;4.462;2023-10-08T09:05:21;26.70;63.00
12833;DHT22;6483;51.310;4.462;2023-10-08T09:08:15;26.10;61.20
12833;DHT22;6483;51.310;4.462;2023-10-08T09:10:46;25.00;69.30
12833;DHT22;6483;51.310;4.462;2023-10-08T09:13:24;25.10;65.30
12833;DHT22;6483;51.310;4.462;2023-10-08T09:15:51;25.30;64.40
12833;DHT22;6483;51.310;4.462;2023-10-08T09:18:17;24.50;73.00
12833;DHT22;6483;51.310;4.462;2023-10-08T09:20:43;24.50;86.90
12833;DHT22;6483;51.310;4.462;2023-10-08T09:23:16;25.00;84.80
12833;DHT22;6483;51.310;4.462;2023-10-08T09:25:47;24.70;82.80
12833;DHT22;6483;51.310;4.462;2023-10-08T09:28:17;27.80;62.40
12833;DHT22;6483;51.310;4.462;2023-10-08T09:30:43;28.90;68.30
12833;DHT22;6483;51.310;4.462;2023-10-08T09:33:14;28.60;71.60
12833;DHT22;6483;51.310;4.462;2023-10-08T09:35:41;27.20;62.00
12833;DHT22;6483;51.310;4.462;2023-10-08T09:38:08;26.20;52.80
12833;DHT22;6483;51.310;4.462;2023-10-08T09:40:37;25.20;54.10
12833;DHT22;6483;51.310;4.462;2023-10-08T09:43:03;25.00;76.60
12833;DHT22;6483;51.310;4.462;2023-10-08T09:45:43;24.80;77.60
12833;DHT22;6483;51.310;4.462;2023-10-08T09:48:16;24.80;78.00
12833;DHT22;6483;51.310;4.462;2023-10-08T09:50:46;25.10;81.80
12833;DHT22;6483;51.310;4.462;2023-10-08T09:53:14;25.50;87.00
12833;DHT22;6483;51.310;4.462;2023-10-08T09:56:13;26.50;66.10
12833;DHT22;6483;51.310;4.462;2023-10-08T09:58:41;26.40;53.70
12833;DHT22;6483;51.310;4.462;2023-10-08T10:01:08;26.20;59.50
12833;DHT22;6483;51.310;4.462;2023-10-08T10:03:35;26.00;57.80
12833;DHT22;6483;51.310;4.462;2023-10-08T10:06:04;26.00;58.60
12833;DHT22;6483;51.310;4.462;2023-10-08T10:08:38;26.10;59.70
12833;DHT22;6483;51.310;4.462;2023-10-08T10:11:04;26.10;60.00
12833;DHT22;6483;51.310;4.462;2023-10-08T10:13:35;25.70;61.30
12833;DHT22;6483;51.310;4.462;2023-10-08T10:16:05;26.00;76.90
12833;DHT22;6483;51.310;4.462;2023-10-08T10:18:36;27.60;66.90
12833;DHT22;6483;51.310;4.462;2023-10-08T10:23:45;30.70;99.90
12833;DHT22;6483;51.310;4.462;2023-10-08T10:31:45;33.80;99.90
12833;DHT22;6483;51.310;4.462;2023-10-08T10:34:25;33.20;99.90
12833;DHT22;6483;51.310;4.462;2023-10-08T10:36:53;33.40;99.90
12833;DHT22;6483;51.310;4.462;2023-10-08T10:39:25;33.90;99.90
12833;DHT22;6483;51.310;4.462;2023-10-08T10:42:00;34.50;99.90
12833;DHT22;6483;51.310;4.462;2023-10-08T10:44:31;33.40;99.90
12833;DHT22;6483;51.310;4.462;2023-10-08T10:47:06;33.70;99.90
12833;DHT22;6483;51.310;4.462;2023-10-08T10:49:51;34.50;99.90
12833;DHT22;6483;51.310;4.462;2023-10-08T10:52:24;35.10;99.90
12833;DHT22;6483;51.310;4.462;2023-10-08T10:55:13;32.80;99.90
12833;DHT22;6483;51.310;4.462;2023-10-08T10:57:51;34.10;99.90
12833;DHT22;6483;51.310;4.462;2023-10-08T11:00:42;34.50;99.90
12833;DHT22;6483;51.310;4.462;2023-10-08T11:03:07;32.20;99.90
12833;DHT22;6483;51.310;4.462;2023-10-08T11:05:56;31.00;99.90
12833;DHT22;6483;51.310;4.462;2023-10-08T11:08:26;31.50;99.90
12833;DHT22;6483;51.310;4.462;2023-10-08T11:10:57;31.90;99.90
12833;DHT22;6483;51.310;4.462;2023-10-08T11:13:24;31.40;99.90
12833;DHT22;6483;51.310;4.462;2023-10-08T11:15:57;31.90;99.90
12833;DHT22;6483;51.310;4.462;2023-10-08T11:18:26;32.80;99.90
12833;DHT22;6483;51.310;4.462;2023-10-08T11:21:06;33.70;99.90
12833;DHT22;6483;51.310;4.462;2023-10-08T11:23:49;34.80;99.90
12833;DHT22;6483;51.310;4.462;2023-10-08T11:26:19;35.60;99.90
12833;DHT22;6483;51.310;4.462;2023-10-08T11:28:47;35.90;99.90
12833;DHT22;6483;51.310;4.462;2023-10-08T11:31:20;35.50;99.90
12833;DHT22;6483;51.310;4.462;2023-10-08T11:33:47;34.00;99.90
12833;DHT22;6483;51.310;4.462;2023-10-08T11:36:20;33.60;99.90
12833;DHT22;6483;51.310;4.462;2023-10-08T11:38:55;34.40;99.90
12833;DHT22;6483;51.310;4.462;2023-10-08T11:41:29;35.20;99.90
12833;DHT22;6483;51.310;4.462;2023-10-08T11:43:57;34.80;99.90
12833;DHT22;6483;51.310;4.462;2023-10-08T11:48:51;37.20;99.90
12833;DHT22;6483;51.310;4.462;2023-10-08T11:51:20;37.40;99.90
12833;DHT22;6483;51.310;4.462;2023-10-08T11:53:53;38.50;99.90
12833;DHT22;6483;51.310;4.462;2023-10-08T11:56:18;37.30;99.90
12833;DHT22;6483;51.310;4.462;2023-10-08T11:58:49;36.70;99.90
12833;DHT22;6483;51.310;4.462;2023-10-08T12:01:19;35.80;99.90
12833;DHT22;6483;51.310;4.462;2023-10-08T12:03:50;35.50;99.90
12833;DHT22;6483;51.310;4.462;2023-10-08T12:06:20;34.40;99.90
12833;DHT22;6483;51.310;4.462;2023-10-08T12:08:47;34.90;99.90
12833;DHT22;6483;51.310;4.462;2023-10-08T12:11:13;35.10;99.90
12833;DHT22;6483;51.310;4.462;2023-10-08T12:13:41;35.30;99.90
12833;DHT22;6483;51.310;4.462;2023-10-08T12:16:14;36.60;99.90
12833;DHT22;6483;51.310;4.462;2023-10-08T12:18:52;36.30;99.90
12833;DHT22;6483;51.310;4.462;2023-10-08T12:21:29;38.10;99.90
12833;DHT22;6483;51.310;4.462;2023-10-08T12:24:02;37.60;99.90
12833;DHT22;6483;51.310;4.462;2023-10-08T12:26:30;39.10;99.90
12833;DHT22;6483;51.310;4.462;2023-10-08T12:28:57;40.60;99.90
12833;DHT22;6483;51.310;4.462;2023-10-08T12:31:31;42.00;99.90
12833;DHT22;6483;51.310;4.462;2023-10-08T12:33:59;42.90;99.90
12833;DHT22;6483;51.310;4.462;2023-10-08T12:36:45;42.10;99.90
12833;DHT22;6483;51.310;4.462;2023-10-08T12:39:13;42.00;99.90
12833;DHT22;6483;51.310;4.462;2023-10-08T12:41:56;42.00;99.90
12833;DHT22;6483;51.310;4.462;2023-10-08T12:44:33;41.00;99.90
12833;DHT22;6483;51.310;4.462;2023-10-08T12:46:58;39.00;99.90
12833;DHT22;6483;51.310;4.462;2023-10-08T12:49:24;38.10;99.90
12833;DHT22;6483;51.310;4.462;2023-10-08T12:51:54;36.80;99.90
12833;DHT22;6483;51.310;4.462;2023-10-08T12:54:19;35.40;99.90
12833;DHT22;6483;51.310;4.462;2023-10-08T12:56:49;34.20;99.90
12833;DHT22;6483;51.310;4.462;2023-10-08T12:59:16;33.60;99.90
12833;DHT22;6483;51.310;4.462;2023-10-08T13:01:50;35.70;99.90
12833;DHT22;6483;51.310;4.462;2023-10-08T13:04:22;36.00;99.90
12833;DHT22;6483;51.310;4.462;2023-10-08T13:07:04;34.90;99.90
12833;DHT22;6483;51.310;4.462;2023-10-08T13:09:30;34.20;99.90
12833;DHT22;6483;51.310;4.462;2023-10-08T13:12:02;34.20;99.90
12833;DHT22;6483;51.310;4.462;2023-10-08T13:14:28;34.50;99.90
12833;DHT22;6483;51.310;4.462;2023-10-08T13:16:54;34.60;99.90
12833;DHT22;6483;51.310;4.462;2023-10-08T13:19:20;33.90;99.90
12833;DHT22;6483;51.310;4.462;2023-10-08T13:21:48;33.80;99.90
12833;DHT22;6483;51.310;4.462;2023-10-08T13:24:17;32.60;99.90
12833;DHT22;6483;51.310;4.462;2023-10-08T13:26:44;33.50;99.90
12833;DHT22;6483;51.310;4.462;2023-10-08T13:29:13;33.30;99.90
12833;DHT22;6483;51.310;4.462;2023-10-08T13:31:39;33.60;99.90
12833;DHT22;6483;51.310;4.462;2023-10-08T13:34:05;32.70;99.90
12833;DHT22;6483;51.310;4.462;2023-10-08T13:36:35;31.30;99.90
12833;DHT22;6483;51.310;4.462;2023-10-08T13:39:06;30.00;99.90
12833;DHT22;6483;51.310;4.462;2023-10-08T13:41:43;30.20;99.90
12833;DHT22;6483;51.310;4.462;2023-10-08T13:44:14;29.50;99.90
12833;DHT22;6483;51.310;4.462;2023-10-08T13:46:40;29.10;99.90
12833;DHT22;6483;51.310;4.462;2023-10-08T13:49:14;29.30;99.90
12833;DHT22;6483;51.310;4.462;2023-10-08T13:51:42;29.00;99.90
12833;DHT22;6483;51.310;4.462;2023-10-08T13:54:10;29.60;99.90
12833;DHT22;6483;51.310;4.462;2023-10-08T13:56:36;30.20;99.90
12833;DHT22;6483;51.310;4.462;2023-10-08T13:59:06;32.20;99.90
12833;DHT22;6483;51.310;4.462;2023-10-08T14:01:38;32.30;99.90
12833;DHT22;6483;51.310;4.462;2023-10-08T14:04:09;31.50;99.90
12833;DHT22;6483;51.310;4.462;2023-10-08T14:06:55;30.50;99.90
12833;DHT22;6483;51.310;4.462;2023-10-08T14:09:24;30.20;99.90
12833;DHT22;6483;51.310;4.462;2023-10-08T14:12:02;29.90;99.90
12833;DHT22;6483;51.310;4.462;2023-10-08T14:14:28;29.90;99.90
12833;DHT22;6483;51.310;4.462;2023-10-08T14:16:59;31.20;99.90
12833;DHT22;6483;51.310;4.462;2023-10-08T14:19:29;31.20;99.90
12833;DHT22;6483;51.310;4.462;2023-10-08T14:22:05;30.80;99.90
12833;DHT22;6483;51.310;4.462;2023-10-08T14:24:37;31.60;99.90
12833;DHT22;6483;51.310;4.462;2023-10-08T14:27:04;32.40;99.90
12833;DHT22;6483;51.310;4.462;2023-10-08T14:29:38;32.40;99.90
12833;DHT22;6483;51.310;4.462;2023-10-08T14:32:16;32.40;99.90
12833;DHT22;6483;51.310;4.462;2023-10-08T14:34:42;33.20;99.90
12833;DHT22;6483;51.310;4.462;2023-10-08T14:37:11;32.40;99.90
12833;DHT22;6483;51.310;4.462;2023-10-08T14:39:56;31.50;99.90
12833;DHT22;6483;51.310;4.462;2023-10-08T14:42:40;29.90;99.90
12833;DHT22;6483;51.310;4.462;2023-10-08T14:45:25;29.40;99.90
12833;DHT22;6483;51.310;4.462;2023-10-08T14:47:58;29.00;99.90
12833;DHT22;6483;51.310;4.462;2023-10-08T14:50:25;28.80;99.90
12833;DHT22;6483;51.310;4.462;2023-10-08T14:52:54;29.40;99.90
12833;DHT22;6483;51.310;4.462;2023-10-08T14:55:21;29.50;99.90
12833;DHT22;6483;51.310;4.462;2023-10-08T14:57:48;28.70;99.90
12833;DHT22;6483;51.310;4.462;2023-10-08T15:00:18;27.90;99.90
12833;DHT22;6483;51.310;4.462;2023-10-08T15:02:51;27.20;99.90
12833;DHT22;6483;51.310;4.462;2023-10-08T15:05:19;26.70;99.90
12833;DHT22;6483;51.310;4.462;2023-10-08T15:07:45;26.20;99.90
12833;DHT22;6483;51.310;4.462;2023-10-08T15:10:17;25.90;99.90
12833;DHT22;6483;51.310;4.462;2023-10-08T15:12:43;25.50;99.90
12833;DHT22;6483;51.310;4.462;2023-10-08T15:15:09;25.20;98.60
12833;DHT22;6483;51.310;4.462;2023-10-08T15:17:50;24.70;96.10
12833;DHT22;6483;51.310;4.462;2023-10-08T15:20:19;24.40;95.30
12833;DHT22;6483;51.310;4.462;2023-10-08T15:22:47;24.30;99.90
12833;DHT22;6483;51.310;4.462;2023-10-08T15:25:15;24.10;99.90
12833;DHT22;6483;51.310;4.462;2023-10-08T15:27:48;24.10;99.90
12833;DHT22;6483;51.310;4.462;2023-10-08T15:30:18;24.10;99.90
12833;DHT22;6483;51.310;4.462;2023-10-08T15:32:46;24.10;99.90
12833;DHT22;6483;51.310;4.462;2023-10-08T15:35:15;24.10;99.90
12833;DHT22;6483;51.310;4.462;2023-10-08T15:37:42;24.10;99.90
12833;DHT22;6483;51.310;4.462;2023-10-08T15:40:11;24.10;99.90
12833;DHT22;6483;51.310;4.462;2023-10-08T15:42:44;24.00;99.90
12833;DHT22;6483;51.310;4.462;2023-10-08T15:45:14;23.90;99.90
12833;DHT22;6483;51.310;4.462;2023-10-08T15:47:40;23.80;99.90
12833;DHT22;6483;51.310;4.462;2023-10-08T15:50:07;23.70;99.90
12833;DHT22;6483;51.310;4.462;2023-10-08T15:52:36;23.60;99.90
12833;DHT22;6483;51.310;4.462;2023-10-08T15:55:02;23.50;99.90
12833;DHT22;6483;51.310;4.462;2023-10-08T15:57:32;23.40;99.90
12833;DHT22;6483;51.310;4.462;2023-10-08T16:00:01;23.30;99.90
12833;DHT22;6483;51.310;4.462;2023-10-08T16:02:29;23.20;99.90
12833;DHT22;6483;51.310;4.462;2023-10-08T16:04:55;23.10;99.90
12833;DHT22;6483;51.310;4.462;2023-10-08T16:07:21;23.10;99.90
12833;DHT22;6483;51.310;4.462;2023-10-08T16:09:48;23.00;99.90
12833;DHT22;6483;51.310;4.462;2023-10-08T16:12:14;22.90;99.90
12833;DHT22;6483;51.310;4.462;2023-10-08T16:14:42;22.80;99.90
12833;DHT22;6483;51.310;4.462;2023-10-08T16:17:08;22.80;99.90
12833;DHT22;6483;51.310;4.462;2023-10-08T16:19:38;22.70;99.90
12833;DHT22;6483;51.310;4.462;2023-10-08T16:22:09;22.60;99.90
12833;DHT22;6483;51.310;4.462;2023-10-08T16:24:37;22.60;99.90
12833;DHT22;6483;51.310;4.462;2023-10-08T16:27:04;22.50;99.90
12833;DHT22;6483;51.310;4.462;2023-10-08T16:29:33;22.50;99.90